Terminal Aerodrome Forecast
Issued by NWS

Home | Current Version | Previous Version | Text Only | Print | Product List | Glossary On
Versions: 1 2 3 4 5 6 7 8 9 10 11 12 13 14 15 16
000
FTUS42 KTBW 021731
TAFLAL
TAF
KLAL 021731Z 0218/0318 23009KT P6SM SHRA SCT025 BKN090
      TEMPO 0218/0220 VRB15G25KT 3SM TSRA BKN025CB
     FM022300 22007KT P6SM SHRA BKN090 BKN250
     FM031500 23009KT P6SM VCTS SCT020CB BKN090=

USA.gov is the U.S. government's official web portal to all federal, state and local government web resources and services.